sensor_id;sensor_type;location;lat;lon;timestamp;P1;durP1;ratioP1;P2;durP2;ratioP2
45887;SDS011;31595;51.418;7.572;2022-08-01T00:00:42;12.88;;;11.55;;
45887;SDS011;31595;51.418;7.572;2022-08-01T00:03:09;12.23;;;11.02;;
45887;SDS011;31595;51.418;7.572;2022-08-01T00:05:36;12.50;;;11.18;;
45887;SDS011;31595;51.418;7.572;2022-08-01T00:08:04;12.20;;;10.48;;
45887;SDS011;31595;51.418;7.572;2022-08-01T00:10:31;12.30;;;10.88;;
45887;SDS011;31595;51.418;7.572;2022-08-01T00:13:00;10.85;;;9.80;;
45887;SDS011;31595;51.418;7.572;2022-08-01T00:15:27;12.35;;;11.05;;
45887;SDS011;31595;51.418;7.572;2022-08-01T00:17:54;12.48;;;11.18;;
45887;SDS011;31595;51.418;7.572;2022-08-01T00:20:25;11.68;;;10.50;;
45887;SDS011;31595;51.418;7.572;2022-08-01T00:22:52;14.10;;;12.38;;
45887;SDS011;31595;51.418;7.572;2022-08-01T00:25:20;12.68;;;10.73;;
45887;SDS011;31595;51.418;7.572;2022-08-01T00:27:47;13.20;;;11.88;;
45887;SDS011;31595;51.418;7.572;2022-08-01T00:30:15;12.02;;;10.82;;
45887;SDS011;31595;51.418;7.572;2022-08-01T00:32:46;11.93;;;10.77;;
45887;SDS011;31595;51.418;7.572;2022-08-01T00:35:18;10.63;;;9.63;;
45887;SDS011;31595;51.418;7.572;2022-08-01T00:37:47;13.18;;;10.77;;
45887;SDS011;31595;51.418;7.572;2022-08-01T00:40:15;11.98;;;10.68;;
45887;SDS011;31595;51.418;7.572;2022-08-01T00:42:42;10.00;;;9.00;;
45887;SDS011;31595;51.418;7.572;2022-08-01T00:45:09;11.05;;;9.95;;
45887;SDS011;31595;51.418;7.572;2022-08-01T00:47:39;11.17;;;10.07;;
45887;SDS011;31595;51.418;7.572;2022-08-01T00:50:09;10.85;;;9.43;;
45887;SDS011;31595;51.418;7.572;2022-08-01T00:52:37;10.48;;;9.52;;
45887;SDS011;31595;51.418;7.572;2022-08-01T00:55:06;11.15;;;10.02;;
45887;SDS011;31595;51.418;7.572;2022-08-01T00:57:37;12.90;;;11.75;;
45887;SDS011;31595;51.418;7.572;2022-08-01T01:00:08;12.73;;;11.15;;
45887;SDS011;31595;51.418;7.572;2022-08-01T01:02:36;12.15;;;10.95;;
45887;SDS011;31595;51.418;7.572;2022-08-01T01:05:08;13.07;;;11.75;;
45887;SDS011;31595;51.418;7.572;2022-08-01T01:07:38;13.75;;;12.45;;
45887;SDS011;31595;51.418;7.572;2022-08-01T01:10:12;14.57;;;13.18;;
45887;SDS011;31595;51.418;7.572;2022-08-01T01:12:46;13.02;;;11.80;;
45887;SDS011;31595;51.418;7.572;2022-08-01T01:15:21;12.27;;;11.10;;
45887;SDS011;31595;51.418;7.572;2022-08-01T01:17:57;11.77;;;10.57;;
45887;SDS011;31595;51.418;7.572;2022-08-01T01:20:30;12.95;;;11.75;;
45887;SDS011;31595;51.418;7.572;2022-08-01T01:23:10;13.38;;;12.13;;
45887;SDS011;31595;51.418;7.572;2022-08-01T01:25:51;15.02;;;13.52;;
45887;SDS011;31595;51.418;7.572;2022-08-01T01:28:55;16.00;;;14.50;;
45887;SDS011;31595;51.418;7.572;2022-08-01T01:31:33;17.65;;;15.93;;
45887;SDS011;31595;51.418;7.572;2022-08-01T01:34:06;17.30;;;15.60;;
45887;SDS011;31595;51.418;7.572;2022-08-01T01:36:36;17.60;;;15.85;;
45887;SDS011;31595;51.418;7.572;2022-08-01T01:39:05;17.23;;;15.45;;
45887;SDS011;31595;51.418;7.572;2022-08-01T01:41:33;19.10;;;16.90;;
45887;SDS011;31595;51.418;7.572;2022-08-01T01:46:32;20.35;;;18.25;;
45887;SDS011;31595;51.418;7.572;2022-08-01T01:49:00;23.48;;;20.67;;
45887;SDS011;31595;51.418;7.572;2022-08-01T01:51:28;24.13;;;21.67;;
45887;SDS011;31595;51.418;7.572;2022-08-01T01:53:57;30.85;;;27.38;;
45887;SDS011;31595;51.418;7.572;2022-08-01T01:56:26;28.15;;;25.15;;
45887;SDS011;31595;51.418;7.572;2022-08-01T02:01:26;27.05;;;24.27;;
45887;SDS011;31595;51.418;7.572;2022-08-01T02:03:56;29.92;;;26.85;;
45887;SDS011;31595;51.418;7.572;2022-08-01T02:06:24;30.83;;;27.00;;
45887;SDS011;31595;51.418;7.572;2022-08-01T02:08:53;27.95;;;25.00;;
45887;SDS011;31595;51.418;7.572;2022-08-01T02:11:24;30.58;;;27.33;;
45887;SDS011;31595;51.418;7.572;2022-08-01T02:13:53;27.85;;;24.85;;
45887;SDS011;31595;51.418;7.572;2022-08-01T02:16:23;25.70;;;23.02;;
45887;SDS011;31595;51.418;7.572;2022-08-01T02:18:55;31.88;;;28.48;;
45887;SDS011;31595;51.418;7.572;2022-08-01T02:21:25;26.95;;;24.15;;
45887;SDS011;31595;51.418;7.572;2022-08-01T02:23:55;28.98;;;25.52;;
45887;SDS011;31595;51.418;7.572;2022-08-01T02:26:29;26.65;;;23.95;;
45887;SDS011;31595;51.418;7.572;2022-08-01T02:28:59;26.77;;;23.90;;
45887;SDS011;31595;51.418;7.572;2022-08-01T02:31:31;28.13;;;25.13;;
45887;SDS011;31595;51.418;7.572;2022-08-01T02:34:02;27.20;;;23.92;;
45887;SDS011;31595;51.418;7.572;2022-08-01T02:36:33;30.17;;;25.75;;
45887;SDS011;31595;51.418;7.572;2022-08-01T02:41:30;27.73;;;23.70;;
45887;SDS011;31595;51.418;7.572;2022-08-01T02:44:02;24.58;;;21.98;;
45887;SDS011;31595;51.418;7.572;2022-08-01T02:46:34;28.92;;;25.85;;
45887;SDS011;31595;51.418;7.572;2022-08-01T02:49:05;31.40;;;26.83;;
45887;SDS011;31595;51.418;7.572;2022-08-01T02:51:34;26.23;;;23.40;;
45887;SDS011;31595;51.418;7.572;2022-08-01T02:54:03;27.08;;;24.20;;
45887;SDS011;31595;51.418;7.572;2022-08-01T02:56:33;26.02;;;23.33;;
45887;SDS011;31595;51.418;7.572;2022-08-01T02:59:03;26.30;;;23.50;;
45887;SDS011;31595;51.418;7.572;2022-08-01T03:01:34;25.02;;;22.10;;
45887;SDS011;31595;51.418;7.572;2022-08-01T03:04:03;24.80;;;22.00;;
45887;SDS011;31595;51.418;7.572;2022-08-01T03:06:31;27.73;;;24.73;;
45887;SDS011;31595;51.418;7.572;2022-08-01T03:09:00;26.25;;;23.48;;
45887;SDS011;31595;51.418;7.572;2022-08-01T03:11:30;29.05;;;25.50;;
45887;SDS011;31595;51.418;7.572;2022-08-01T03:13:59;29.25;;;26.20;;
45887;SDS011;31595;51.418;7.572;2022-08-01T03:16:30;28.27;;;25.33;;
45887;SDS011;31595;51.418;7.572;2022-08-01T03:19:02;29.35;;;25.25;;
45887;SDS011;31595;51.418;7.572;2022-08-01T03:24:00;29.80;;;26.20;;
45887;SDS011;31595;51.418;7.572;2022-08-01T03:26:29;39.20;;;31.47;;
45887;SDS011;31595;51.418;7.572;2022-08-01T03:28:59;28.48;;;25.42;;
45887;SDS011;31595;51.418;7.572;2022-08-01T03:31:33;28.17;;;25.13;;
45887;SDS011;31595;51.418;7.572;2022-08-01T03:34:02;28.90;;;25.08;;
45887;SDS011;31595;51.418;7.572;2022-08-01T03:36:29;28.17;;;24.98;;
45887;SDS011;31595;51.418;7.572;2022-08-01T03:39:00;28.05;;;24.83;;
45887;SDS011;31595;51.418;7.572;2022-08-01T03:41:32;26.35;;;23.13;;
45887;SDS011;31595;51.418;7.572;2022-08-01T03:44:05;28.77;;;23.60;;
45887;SDS011;31595;51.418;7.572;2022-08-01T03:46:40;29.20;;;25.50;;
45887;SDS011;31595;51.418;7.572;2022-08-01T03:49:13;24.38;;;21.90;;
45887;SDS011;31595;51.418;7.572;2022-08-01T03:51:44;23.88;;;21.45;;
45887;SDS011;31595;51.418;7.572;2022-08-01T03:54:15;25.10;;;22.00;;
45887;SDS011;31595;51.418;7.572;2022-08-01T03:59:13;23.23;;;20.25;;
45887;SDS011;31595;51.418;7.572;2022-08-01T04:01:43;24.05;;;21.42;;
45887;SDS011;31595;51.418;7.572;2022-08-01T04:06:38;24.90;;;22.00;;
45887;SDS011;31595;51.418;7.572;2022-08-01T04:09:06;29.60;;;24.10;;
45887;SDS011;31595;51.418;7.572;2022-08-01T04:11:34;24.98;;;22.30;;
45887;SDS011;31595;51.418;7.572;2022-08-01T04:14:02;24.08;;;21.60;;
45887;SDS011;31595;51.418;7.572;2022-08-01T04:16:29;25.58;;;22.88;;
45887;SDS011;31595;51.418;7.572;2022-08-01T04:18:57;24.33;;;21.73;;
45887;SDS011;31595;51.418;7.572;2022-08-01T04:21:26;22.45;;;20.25;;
45887;SDS011;31595;51.418;7.572;2022-08-01T04:23:58;23.75;;;21.25;;
45887;SDS011;31595;51.418;7.572;2022-08-01T04:26:30;28.67;;;23.77;;
45887;SDS011;31595;51.418;7.572;2022-08-01T04:29:01;23.00;;;20.52;;
45887;SDS011;31595;51.418;7.572;2022-08-01T04:31:32;22.45;;;20.25;;
45887;SDS011;31595;51.418;7.572;2022-08-01T04:34:02;22.88;;;20.58;;
45887;SDS011;31595;51.418;7.572;2022-08-01T04:36:32;23.08;;;20.70;;
45887;SDS011;31595;51.418;7.572;2022-08-01T04:39:02;23.95;;;20.75;;
45887;SDS011;31595;51.418;7.572;2022-08-01T04:41:31;24.77;;;22.13;;
45887;SDS011;31595;51.418;7.572;2022-08-01T04:44:00;25.05;;;22.48;;
45887;SDS011;31595;51.418;7.572;2022-08-01T04:46:28;23.77;;;21.40;;
45887;SDS011;31595;51.418;7.572;2022-08-01T04:48:56;24.75;;;22.23;;
45887;SDS011;31595;51.418;7.572;2022-08-01T04:51:25;24.33;;;21.40;;
45887;SDS011;31595;51.418;7.572;2022-08-01T04:53:53;21.38;;;19.20;;
45887;SDS011;31595;51.418;7.572;2022-08-01T04:56:20;24.27;;;21.58;;
45887;SDS011;31595;51.418;7.572;2022-08-01T04:58:47;26.58;;;23.75;;
45887;SDS011;31595;51.418;7.572;2022-08-01T05:01:35;26.50;;;21.50;;
45887;SDS011;31595;51.418;7.572;2022-08-01T05:04:02;25.58;;;22.90;;
45887;SDS011;31595;51.418;7.572;2022-08-01T05:06:31;23.60;;;21.20;;
45887;SDS011;31595;51.418;7.572;2022-08-01T05:08:58;24.67;;;22.15;;
45887;SDS011;31595;51.418;7.572;2022-08-01T05:11:25;25.65;;;23.15;;
45887;SDS011;31595;51.418;7.572;2022-08-01T05:13:52;24.08;;;21.60;;
45887;SDS011;31595;51.418;7.572;2022-08-01T05:16:20;25.70;;;23.08;;
45887;SDS011;31595;51.418;7.572;2022-08-01T05:18:47;28.67;;;25.42;;
45887;SDS011;31595;51.418;7.572;2022-08-01T05:21:14;24.65;;;21.38;;
45887;SDS011;31595;51.418;7.572;2022-08-01T05:23:43;27.83;;;24.95;;
45887;SDS011;31595;51.418;7.572;2022-08-01T05:26:11;24.65;;;22.13;;
45887;SDS011;31595;51.418;7.572;2022-08-01T05:28:39;23.13;;;20.70;;
45887;SDS011;31595;51.418;7.572;2022-08-01T05:31:06;24.95;;;22.35;;
45887;SDS011;31595;51.418;7.572;2022-08-01T05:33:34;27.25;;;23.75;;
45887;SDS011;31595;51.418;7.572;2022-08-01T05:36:02;24.65;;;22.08;;
45887;SDS011;31595;51.418;7.572;2022-08-01T05:38:30;22.23;;;19.85;;
45887;SDS011;31595;51.418;7.572;2022-08-01T05:40:58;22.77;;;20.45;;
45887;SDS011;31595;51.418;7.572;2022-08-01T05:43:26;24.67;;;21.13;;
45887;SDS011;31595;51.418;7.572;2022-08-01T05:45:53;25.50;;;21.95;;
45887;SDS011;31595;51.418;7.572;2022-08-01T05:48:20;25.15;;;22.42;;
45887;SDS011;31595;51.418;7.572;2022-08-01T05:50:48;22.88;;;20.58;;
45887;SDS011;31595;51.418;7.572;2022-08-01T05:53:15;20.60;;;18.60;;
45887;SDS011;31595;51.418;7.572;2022-08-01T05:55:42;18.63;;;16.67;;
45887;SDS011;31595;51.418;7.572;2022-08-01T05:58:11;17.88;;;16.08;;
45887;SDS011;31595;51.418;7.572;2022-08-01T06:00:38;16.88;;;15.18;;
45887;SDS011;31595;51.418;7.572;2022-08-01T06:03:06;18.55;;;16.30;;
45887;SDS011;31595;51.418;7.572;2022-08-01T06:05:33;17.52;;;15.73;;
45887;SDS011;31595;51.418;7.572;2022-08-01T06:08:00;15.95;;;14.35;;
45887;SDS011;31595;51.418;7.572;2022-08-01T06:10:27;16.20;;;13.93;;
45887;SDS011;31595;51.418;7.572;2022-08-01T06:12:55;17.67;;;14.85;;
45887;SDS011;31595;51.418;7.572;2022-08-01T06:15:24;16.10;;;14.18;;
45887;SDS011;31595;51.418;7.572;2022-08-01T06:17:51;16.02;;;14.43;;
45887;SDS011;31595;51.418;7.572;2022-08-01T06:20:18;14.07;;;12.68;;
45887;SDS011;31595;51.418;7.572;2022-08-01T06:22:45;14.73;;;13.27;;
45887;SDS011;31595;51.418;7.572;2022-08-01T06:25:13;13.70;;;12.40;;
45887;SDS011;31595;51.418;7.572;2022-08-01T06:27:40;12.90;;;11.52;;
45887;SDS011;31595;51.418;7.572;2022-08-01T06:30:08;12.70;;;11.50;;
45887;SDS011;31595;51.418;7.572;2022-08-01T06:32:37;12.75;;;10.13;;
45887;SDS011;31595;51.418;7.572;2022-08-01T06:35:04;12.63;;;9.13;;
45887;SDS011;31595;51.418;7.572;2022-08-01T06:37:32;9.10;;;8.20;;
45887;SDS011;31595;51.418;7.572;2022-08-01T06:40:00;8.80;;;7.85;;
45887;SDS011;31595;51.418;7.572;2022-08-01T06:42:27;8.35;;;6.95;;
45887;SDS011;31595;51.418;7.572;2022-08-01T06:47:24;7.05;;;6.35;;
45887;SDS011;31595;51.418;7.572;2022-08-01T06:49:52;7.03;;;6.32;;
45887;SDS011;31595;51.418;7.572;2022-08-01T06:52:20;7.72;;;6.65;;
45887;SDS011;31595;51.418;7.572;2022-08-01T06:54:47;8.30;;;7.03;;
45887;SDS011;31595;51.418;7.572;2022-08-01T06:57:14;7.47;;;6.13;;
45887;SDS011;31595;51.418;7.572;2022-08-01T06:59:41;6.70;;;6.00;;
45887;SDS011;31595;51.418;7.572;2022-08-01T07:02:09;7.90;;;6.75;;
45887;SDS011;31595;51.418;7.572;2022-08-01T07:04:36;7.95;;;6.25;;
45887;SDS011;31595;51.418;7.572;2022-08-01T07:07:05;8.73;;;7.20;;
45887;SDS011;31595;51.418;7.572;2022-08-01T07:09:32;8.60;;;6.55;;
45887;SDS011;31595;51.418;7.572;2022-08-01T07:11:59;8.13;;;7.32;;
45887;SDS011;31595;51.418;7.572;2022-08-01T07:14:27;8.10;;;7.30;;
45887;SDS011;31595;51.418;7.572;2022-08-01T07:16:54;7.90;;;7.07;;
45887;SDS011;31595;51.418;7.572;2022-08-01T07:19:21;8.20;;;7.40;;
45887;SDS011;31595;51.418;7.572;2022-08-01T07:21:49;7.65;;;6.85;;
45887;SDS011;31595;51.418;7.572;2022-08-01T07:24:17;9.88;;;8.43;;
45887;SDS011;31595;51.418;7.572;2022-08-01T07:26:46;8.65;;;7.75;;
45887;SDS011;31595;51.418;7.572;2022-08-01T07:29:14;8.55;;;7.75;;
45887;SDS011;31595;51.418;7.572;2022-08-01T07:31:42;7.93;;;7.22;;
45887;SDS011;31595;51.418;7.572;2022-08-01T07:34:09;7.93;;;7.13;;
45887;SDS011;31595;51.418;7.572;2022-08-01T07:36:36;8.60;;;7.80;;
45887;SDS011;31595;51.418;7.572;2022-08-01T07:39:04;13.02;;;7.95;;
45887;SDS011;31595;51.418;7.572;2022-08-01T07:41:32;7.40;;;6.80;;
45887;SDS011;31595;51.418;7.572;2022-08-01T07:44:00;7.85;;;7.10;;
45887;SDS011;31595;51.418;7.572;2022-08-01T07:46:27;8.50;;;7.70;;
45887;SDS011;31595;51.418;7.572;2022-08-01T07:48:55;8.15;;;7.45;;
45887;SDS011;31595;51.418;7.572;2022-08-01T07:51:23;9.20;;;8.23;;
45887;SDS011;31595;51.418;7.572;2022-08-01T07:53:50;10.98;;;8.23;;
45887;SDS011;31595;51.418;7.572;2022-08-01T07:56:17;8.40;;;7.50;;
45887;SDS011;31595;51.418;7.572;2022-08-01T07:58:46;7.50;;;6.80;;
45887;SDS011;31595;51.418;7.572;2022-08-01T08:01:13;8.80;;;7.18;;
45887;SDS011;31595;51.418;7.572;2022-08-01T08:03:41;7.28;;;6.57;;
45887;SDS011;31595;51.418;7.572;2022-08-01T08:06:08;7.25;;;6.55;;
45887;SDS011;31595;51.418;7.572;2022-08-01T08:08:35;7.00;;;6.18;;
45887;SDS011;31595;51.418;7.572;2022-08-01T08:11:02;6.32;;;5.50;;
45887;SDS011;31595;51.418;7.572;2022-08-01T08:13:30;5.70;;;5.13;;
45887;SDS011;31595;51.418;7.572;2022-08-01T08:15:58;5.88;;;5.35;;
45887;SDS011;31595;51.418;7.572;2022-08-01T08:18:26;6.95;;;6.30;;
45887;SDS011;31595;51.418;7.572;2022-08-01T08:20:53;8.45;;;6.60;;
45887;SDS011;31595;51.418;7.572;2022-08-01T08:23:20;7.60;;;6.75;;
45887;SDS011;31595;51.418;7.572;2022-08-01T08:26:05;7.13;;;6.50;;
45887;SDS011;31595;51.418;7.572;2022-08-01T08:28:32;6.90;;;6.30;;
45887;SDS011;31595;51.418;7.572;2022-08-01T08:31:01;7.00;;;6.40;;
45887;SDS011;31595;51.418;7.572;2022-08-01T08:33:29;7.15;;;6.55;;
45887;SDS011;31595;51.418;7.572;2022-08-01T08:35:56;7.40;;;6.70;;
45887;SDS011;31595;51.418;7.572;2022-08-01T08:38:24;8.03;;;7.23;;
45887;SDS011;31595;51.418;7.572;2022-08-01T08:40:52;7.38;;;6.70;;
45887;SDS011;31595;51.418;7.572;2022-08-01T08:43:20;7.20;;;6.50;;
45887;SDS011;31595;51.418;7.572;2022-08-01T08:45:49;6.80;;;6.10;;
45887;SDS011;31595;51.418;7.572;2022-08-01T08:48:18;7.97;;;6.77;;
45887;SDS011;31595;51.418;7.572;2022-08-01T08:50:49;6.20;;;5.60;;
45887;SDS011;31595;51.418;7.572;2022-08-01T08:53:17;5.30;;;4.88;;
45887;SDS011;31595;51.418;7.572;2022-08-01T08:55:48;5.35;;;4.85;;
45887;SDS011;31595;51.418;7.572;2022-08-01T08:58:19;6.95;;;5.30;;
45887;SDS011;31595;51.418;7.572;2022-08-01T09:00:47;5.38;;;4.88;;
45887;SDS011;31595;51.418;7.572;2022-08-01T09:03:15;4.97;;;4.30;;
45887;SDS011;31595;51.418;7.572;2022-08-01T09:05:44;4.97;;;4.20;;
45887;SDS011;31595;51.418;7.572;2022-08-01T09:10:38;4.35;;;3.95;;
45887;SDS011;31595;51.418;7.572;2022-08-01T09:13:12;4.43;;;3.90;;
45887;SDS011;31595;51.418;7.572;2022-08-01T09:15:42;3.53;;;3.22;;
45887;SDS011;31595;51.418;7.572;2022-08-01T09:18:26;3.50;;;3.20;;
45887;SDS011;31595;51.418;7.572;2022-08-01T09:21:08;4.07;;;2.90;;
45887;SDS011;31595;51.418;7.572;2022-08-01T09:23:37;3.10;;;2.80;;
45887;SDS011;31595;51.418;7.572;2022-08-01T09:26:08;3.33;;;3.03;;
45887;SDS011;31595;51.418;7.572;2022-08-01T09:28:35;3.60;;;2.60;;
45887;SDS011;31595;51.418;7.572;2022-08-01T09:31:07;3.00;;;2.60;;
45887;SDS011;31595;51.418;7.572;2022-08-01T09:33:49;3.50;;;2.30;;
45887;SDS011;31595;51.418;7.572;2022-08-01T09:36:20;3.65;;;2.78;;
45887;SDS011;31595;51.418;7.572;2022-08-01T09:38:49;4.35;;;2.50;;
45887;SDS011;31595;51.418;7.572;2022-08-01T09:43:48;3.25;;;2.90;;
45887;SDS011;31595;51.418;7.572;2022-08-01T09:46:17;5.13;;;2.83;;
45887;SDS011;31595;51.418;7.572;2022-08-01T09:48:57;3.73;;;2.83;;
45887;SDS011;31595;51.418;7.572;2022-08-01T09:51:31;4.28;;;2.75;;
45887;SDS011;31595;51.418;7.572;2022-08-01T09:53:59;2.70;;;2.10;;
45887;SDS011;31595;51.418;7.572;2022-08-01T09:56:27;3.00;;;2.15;;
45887;SDS011;31595;51.418;7.572;2022-08-01T09:59:06;3.00;;;2.40;;
45887;SDS011;31595;51.418;7.572;2022-08-01T10:01:43;3.03;;;2.25;;
45887;SDS011;31595;51.418;7.572;2022-08-01T10:06:41;3.42;;;2.30;;
45887;SDS011;31595;51.418;7.572;2022-08-01T10:09:10;4.00;;;1.83;;
45887;SDS011;31595;51.418;7.572;2022-08-01T10:11:41;2.83;;;1.90;;
45887;SDS011;31595;51.418;7.572;2022-08-01T10:14:09;2.03;;;1.73;;
45887;SDS011;31595;51.418;7.572;2022-08-01T10:16:39;2.50;;;2.30;;
45887;SDS011;31595;51.418;7.572;2022-08-01T10:19:07;4.03;;;2.30;;
45887;SDS011;31595;51.418;7.572;2022-08-01T10:21:34;2.15;;;1.95;;
45887;SDS011;31595;51.418;7.572;2022-08-01T10:24:06;2.40;;;2.20;;
45887;SDS011;31595;51.418;7.572;2022-08-01T10:26:38;2.47;;;2.05;;
45887;SDS011;31595;51.418;7.572;2022-08-01T10:29:06;2.97;;;2.20;;
45887;SDS011;31595;51.418;7.572;2022-08-01T10:31:34;2.97;;;2.70;;
45887;SDS011;31595;51.418;7.572;2022-08-01T10:34:04;2.97;;;2.70;;
45887;SDS011;31595;51.418;7.572;2022-08-01T10:36:31;3.08;;;2.78;;
45887;SDS011;31595;51.418;7.572;2022-08-01T10:39:00;3.45;;;3.05;;
45887;SDS011;31595;51.418;7.572;2022-08-01T10:41:29;4.32;;;2.78;;
45887;SDS011;31595;51.418;7.572;2022-08-01T10:43:58;2.70;;;2.50;;
45887;SDS011;31595;51.418;7.572;2022-08-01T10:46:30;3.88;;;2.67;;
45887;SDS011;31595;51.418;7.572;2022-08-01T10:48:59;2.88;;;2.63;;
45887;SDS011;31595;51.418;7.572;2022-08-01T10:51:29;2.83;;;2.53;;
45887;SDS011;31595;51.418;7.572;2022-08-01T10:53:57;2.53;;;1.83;;
45887;SDS011;31595;51.418;7.572;2022-08-01T10:56:39;2.42;;;1.90;;
45887;SDS011;31595;51.418;7.572;2022-08-01T10:59:10;2.27;;;2.07;;
45887;SDS011;31595;51.418;7.572;2022-08-01T11:01:41;2.50;;;2.15;;
45887;SDS011;31595;51.418;7.572;2022-08-01T11:04:09;1.90;;;1.67;;
45887;SDS011;31595;51.418;7.572;2022-08-01T11:06:41;2.00;;;1.67;;
45887;SDS011;31595;51.418;7.572;2022-08-01T11:09:21;2.08;;;1.60;;
45887;SDS011;31595;51.418;7.572;2022-08-01T11:11:57;1.90;;;1.60;;
45887;SDS011;31595;51.418;7.572;2022-08-01T11:14:28;2.20;;;2.00;;
45887;SDS011;31595;51.418;7.572;2022-08-01T11:17:03;2.00;;;1.67;;
45887;SDS011;31595;51.418;7.572;2022-08-01T11:20:05;2.42;;;2.00;;
45887;SDS011;31595;51.418;7.572;2022-08-01T11:28:41;1.63;;;1.00;;
45887;SDS011;31595;51.418;7.572;2022-08-01T11:34:00;1.42;;;0.88;;
45887;SDS011;31595;51.418;7.572;2022-08-01T11:36:28;1.60;;;1.02;;
45887;SDS011;31595;51.418;7.572;2022-08-01T11:39:12;1.52;;;0.90;;
45887;SDS011;31595;51.418;7.572;2022-08-01T11:41:41;1.80;;;0.95;;
45887;SDS011;31595;51.418;7.572;2022-08-01T11:44:12;1.55;;;1.10;;
45887;SDS011;31595;51.418;7.572;2022-08-01T11:49:35;1.90;;;1.70;;
45887;SDS011;31595;51.418;7.572;2022-08-01T11:52:12;1.90;;;1.20;;
45887;SDS011;31595;51.418;7.572;2022-08-01T11:54:41;2.55;;;1.05;;
45887;SDS011;31595;51.418;7.572;2022-08-01T11:57:10;1.70;;;1.25;;
45887;SDS011;31595;51.418;7.572;2022-08-01T11:59:41;2.00;;;1.42;;
45887;SDS011;31595;51.418;7.572;2022-08-01T12:02:18;1.73;;;1.23;;
45887;SDS011;31595;51.418;7.572;2022-08-01T12:04:48;1.67;;;1.20;;
45887;SDS011;31595;51.418;7.572;2022-08-01T12:07:17;2.25;;;1.20;;
45887;SDS011;31595;51.418;7.572;2022-08-01T12:09:45;1.88;;;1.20;;
45887;SDS011;31595;51.418;7.572;2022-08-01T12:12:16;1.50;;;1.33;;
45887;SDS011;31595;51.418;7.572;2022-08-01T12:14:46;2.00;;;1.30;;
45887;SDS011;31595;51.418;7.572;2022-08-01T12:17:27;1.92;;;1.10;;
45887;SDS011;31595;51.418;7.572;2022-08-01T12:19:55;1.48;;;0.90;;
45887;SDS011;31595;51.418;7.572;2022-08-01T12:22:23;1.10;;;0.90;;
45887;SDS011;31595;51.418;7.572;2022-08-01T12:24:51;2.15;;;1.30;;
45887;SDS011;31595;51.418;7.572;2022-08-01T12:27:26;1.90;;;0.90;;
45887;SDS011;31595;51.418;7.572;2022-08-01T12:29:56;1.48;;;1.00;;
45887;SDS011;31595;51.418;7.572;2022-08-01T12:32:25;1.20;;;1.10;;
45887;SDS011;31595;51.418;7.572;2022-08-01T12:34:56;1.25;;;0.88;;
45887;SDS011;31595;51.418;7.572;2022-08-01T12:37:27;0.98;;;0.80;;
45887;SDS011;31595;51.418;7.572;2022-08-01T12:39:54;1.10;;;0.80;;
45887;SDS011;31595;51.418;7.572;2022-08-01T12:44:51;1.38;;;0.80;;
45887;SDS011;31595;51.418;7.572;2022-08-01T12:47:20;1.75;;;0.65;;
45887;SDS011;31595;51.418;7.572;2022-08-01T12:49:48;1.50;;;1.00;;
45887;SDS011;31595;51.418;7.572;2022-08-01T12:52:16;1.20;;;0.80;;
45887;SDS011;31595;51.418;7.572;2022-08-01T12:55:04;1.30;;;0.80;;
45887;SDS011;31595;51.418;7.572;2022-08-01T12:57:37;1.35;;;0.80;;
45887;SDS011;31595;51.418;7.572;2022-08-01T13:00:10;1.85;;;0.65;;
45887;SDS011;31595;51.418;7.572;2022-08-01T13:02:41;2.30;;;0.80;;
45887;SDS011;31595;51.418;7.572;2022-08-01T13:05:10;1.27;;;0.70;;
45887;SDS011;31595;51.418;7.572;2022-08-01T13:07:38;1.42;;;0.73;;
45887;SDS011;31595;51.418;7.572;2022-08-01T13:10:08;1.90;;;0.90;;
45887;SDS011;31595;51.418;7.572;2022-08-01T13:12:36;1.67;;;0.77;;
45887;SDS011;31595;51.418;7.572;2022-08-01T13:17:59;1.52;;;0.75;;
45887;SDS011;31595;51.418;7.572;2022-08-01T13:20:29;1.15;;;0.70;;
45887;SDS011;31595;51.418;7.572;2022-08-01T13:23:11;2.05;;;1.02;;
45887;SDS011;31595;51.418;7.572;2022-08-01T13:25:49;3.05;;;0.88;;
45887;SDS011;31595;51.418;7.572;2022-08-01T13:28:18;1.38;;;1.00;;
45887;SDS011;31595;51.418;7.572;2022-08-01T13:30:53;1.92;;;0.70;;
45887;SDS011;31595;51.418;7.572;2022-08-01T13:33:24;1.27;;;0.85;;
45887;SDS011;31595;51.418;7.572;2022-08-01T13:35:53;1.50;;;0.90;;
45887;SDS011;31595;51.418;7.572;2022-08-01T13:38:22;1.40;;;0.93;;
45887;SDS011;31595;51.418;7.572;2022-08-01T13:41:12;1.38;;;0.80;;
45887;SDS011;31595;51.418;7.572;2022-08-01T13:43:39;1.50;;;0.90;;
45887;SDS011;31595;51.418;7.572;2022-08-01T13:46:06;1.35;;;1.10;;
45887;SDS011;31595;51.418;7.572;2022-08-01T13:48:35;1.52;;;0.90;;
45887;SDS011;31595;51.418;7.572;2022-08-01T13:53:29;1.92;;;0.60;;
45887;SDS011;31595;51.418;7.572;2022-08-01T13:55:57;1.92;;;1.05;;
45887;SDS011;31595;51.418;7.572;2022-08-01T13:58:24;1.80;;;1.08;;
45887;SDS011;31595;51.418;7.572;2022-08-01T14:00:51;1.85;;;1.10;;
45887;SDS011;31595;51.418;7.572;2022-08-01T14:03:19;1.20;;;0.80;;
45887;SDS011;31595;51.418;7.572;2022-08-01T14:05:48;1.77;;;0.80;;
45887;SDS011;31595;51.418;7.572;2022-08-01T14:08:15;1.35;;;0.80;;
45887;SDS011;31595;51.418;7.572;2022-08-01T14:10:42;1.13;;;0.80;;
45887;SDS011;31595;51.418;7.572;2022-08-01T14:13:10;1.60;;;1.00;;
45887;SDS011;31595;51.418;7.572;2022-08-01T14:15:37;2.03;;;0.82;;
45887;SDS011;31595;51.418;7.572;2022-08-01T14:18:05;1.30;;;0.80;;
45887;SDS011;31595;51.418;7.572;2022-08-01T14:20:33;1.20;;;0.98;;
45887;SDS011;31595;51.418;7.572;2022-08-01T14:23:03;1.98;;;0.77;;
45887;SDS011;31595;51.418;7.572;2022-08-01T14:25:31;0.98;;;0.75;;
45887;SDS011;31595;51.418;7.572;2022-08-01T14:27:58;1.30;;;0.80;;
45887;SDS011;31595;51.418;7.572;2022-08-01T14:30:27;1.73;;;0.90;;
45887;SDS011;31595;51.418;7.572;2022-08-01T14:32:55;1.17;;;0.90;;
45887;SDS011;31595;51.418;7.572;2022-08-01T14:35:22;1.50;;;1.02;;
45887;SDS011;31595;51.418;7.572;2022-08-01T14:37:49;2.47;;;1.20;;
45887;SDS011;31595;51.418;7.572;2022-08-01T14:40:18;2.22;;;1.10;;
45887;SDS011;31595;51.418;7.572;2022-08-01T14:42:45;1.00;;;0.65;;
45887;SDS011;31595;51.418;7.572;2022-08-01T14:45:13;1.90;;;0.98;;
45887;SDS011;31595;51.418;7.572;2022-08-01T14:47:41;1.77;;;0.93;;
45887;SDS011;31595;51.418;7.572;2022-08-01T14:50:12;2.33;;;1.05;;
45887;SDS011;31595;51.418;7.572;2022-08-01T14:52:40;2.00;;;1.23;;
45887;SDS011;31595;51.418;7.572;2022-08-01T14:55:09;1.50;;;1.05;;
45887;SDS011;31595;51.418;7.572;2022-08-01T14:57:39;2.78;;;1.35;;
45887;SDS011;31595;51.418;7.572;2022-08-01T15:02:36;2.85;;;2.40;;
45887;SDS011;31595;51.418;7.572;2022-08-01T15:05:04;2.38;;;1.23;;
45887;SDS011;31595;51.418;7.572;2022-08-01T15:07:33;1.60;;;1.05;;
45887;SDS011;31595;51.418;7.572;2022-08-01T15:10:00;1.77;;;1.20;;
45887;SDS011;31595;51.418;7.572;2022-08-01T15:12:27;2.20;;;1.25;;
45887;SDS011;31595;51.418;7.572;2022-08-01T15:14:56;2.13;;;1.20;;
45887;SDS011;31595;51.418;7.572;2022-08-01T15:17:24;1.83;;;1.63;;
45887;SDS011;31595;51.418;7.572;2022-08-01T15:19:55;1.75;;;1.30;;
45887;SDS011;31595;51.418;7.572;2022-08-01T15:22:23;1.80;;;1.30;;
45887;SDS011;31595;51.418;7.572;2022-08-01T15:24:53;1.90;;;1.40;;
45887;SDS011;31595;51.418;7.572;2022-08-01T15:27:21;1.98;;;1.20;;
45887;SDS011;31595;51.418;7.572;2022-08-01T15:29:49;1.75;;;1.30;;
45887;SDS011;31595;51.418;7.572;2022-08-01T15:32:18;1.85;;;1.00;;
45887;SDS011;31595;51.418;7.572;2022-08-01T15:34:45;1.67;;;1.23;;
45887;SDS011;31595;51.418;7.572;2022-08-01T15:37:12;2.08;;;1.35;;